createdAt,value
2023-02-28T00:04:31.535Z,10.10
2023-02-28T00:14:56.429Z,10.20
2023-02-28T00:25:23.770Z,7.10
2023-02-28T00:35:49.091Z,12.50
2023-02-28T00:46:13.724Z,8.90
2023-02-28T00:56:38.179Z,6.80
2023-02-28T01:07:02.429Z,7.60
2023-02-28T01:17:26.969Z,8.90
2023-02-28T01:27:51.741Z,8.90
2023-02-28T01:38:22.658Z,10.40
2023-02-28T01:48:52.914Z,8.00
2023-02-28T01:59:26.117Z,10.60
2023-02-28T02:09:50.446Z,9.30
2023-02-28T02:20:58.129Z,11.80
2023-02-28T02:31:57.031Z,11.30
2023-02-28T02:42:28.535Z,10.60
2023-02-28T02:52:56.582Z,11.80
2023-02-28T03:03:31.478Z,10.20
2023-02-28T03:14:27.070Z,15.70
2023-02-28T03:24:58.649Z,10.60
2023-02-28T03:35:26.879Z,13.90
2023-02-28T03:45:53.094Z,12.10
2023-02-28T03:56:20.275Z,13.00
2023-02-28T04:06:45.666Z,14.70
2023-02-28T04:17:09.892Z,11.20
2023-02-28T04:27:34.167Z,16.30
2023-02-28T04:37:59.101Z,13.80
2023-02-28T04:48:24.373Z,13.80
2023-02-28T04:58:49.111Z,13.30
2023-02-28T05:09:13.339Z,13.40
2023-02-28T05:19:37.590Z,11.70
2023-02-28T05:30:03.957Z,10.30
2023-02-28T05:40:28.934Z,16.70
2023-02-28T05:50:53.164Z,13.50
2023-02-28T06:01:34.477Z,12.30
2023-02-28T06:12:00.548Z,18.60
2023-02-28T06:22:24.728Z,15.60
2023-02-28T06:32:49.994Z,19.10
2023-02-28T06:43:14.371Z,15.60
2023-02-28T06:53:39.381Z,19.00
2023-02-28T07:04:03.550Z,21.40
2023-02-28T07:14:27.803Z,20.00
2023-02-28T07:24:52.562Z,14.70
2023-02-28T07:35:17.028Z,14.50
2023-02-28T07:45:41.314Z,18.40
2023-02-28T07:56:07.711Z,16.00
2023-02-28T08:06:32.104Z,15.60
2023-02-28T08:16:56.364Z,20.80
2023-02-28T08:27:21.223Z,23.20
2023-02-28T08:37:48.382Z,18.70
2023-02-28T08:48:14.094Z,16.20
2023-02-28T08:58:38.794Z,16.70
2023-02-28T09:09:04.704Z,10.70
2023-02-28T09:19:29.541Z,16.40
2023-02-28T09:29:54.366Z,12.60
2023-02-28T09:40:21.535Z,12.20
2023-02-28T09:50:49.258Z,11.40
2023-02-28T10:01:23.903Z,10.30
2023-02-28T10:11:53.656Z,10.60
2023-02-28T10:22:24.920Z,11.80
2023-02-28T10:32:53.890Z,12.10
2023-02-28T10:43:23.501Z,13.60
2023-02-28T10:54:01.528Z,12.90
2023-02-28T11:04:39.536Z,10.50
2023-02-28T11:15:07.623Z,12.40
2023-02-28T11:25:34.773Z,13.10
2023-02-28T11:36:04.782Z,13.00
2023-02-28T11:46:38.181Z,14.10
2023-02-28T11:57:16.869Z,14.70
2023-02-28T12:07:52.752Z,14.40
2023-02-28T12:18:35.546Z,15.20
2023-02-28T12:29:05.983Z,13.60
2023-02-28T12:39:48.339Z,15.40
2023-02-28T12:50:15.632Z,13.80
2023-02-28T13:00:56.865Z,16.30
2023-02-28T13:11:30.788Z,14.50
2023-02-28T13:21:56.223Z,10.40
2023-02-28T13:32:44.145Z,11.20
2023-02-28T13:43:10.528Z,11.20
2023-02-28T13:54:02.444Z,15.70
2023-02-28T14:04:59.106Z,12.60
2023-02-28T14:15:41.410Z,15.50
2023-02-28T14:26:20.385Z,26.00
2023-02-28T14:36:45.432Z,14.20
2023-02-28T14:47:16.861Z,13.20
2023-02-28T14:57:51.191Z,10.10
2023-02-28T15:08:17.209Z,11.30
2023-02-28T15:18:49.351Z,11.30
2023-02-28T15:29:15.957Z,14.00
2023-02-28T15:39:45.067Z,16.70
2023-02-28T15:50:15.152Z,10.30
2023-02-28T16:00:39.757Z,10.80
2023-02-28T16:11:03.990Z,9.20
2023-02-28T16:21:28.729Z,11.70
2023-02-28T16:31:53.830Z,15.30
2023-02-28T16:42:23.440Z,10.60
2023-02-28T16:52:48.306Z,12.30
2023-02-28T17:03:32.070Z,9.50
2023-02-28T17:13:57.396Z,12.30
2023-02-28T17:24:30.318Z,14.20
2023-02-28T17:34:55.388Z,17.30
2023-02-28T17:45:20.333Z,13.20
2023-02-28T17:55:44.603Z,16.20
2023-02-28T18:06:15.754Z,13.60
2023-02-28T18:16:40.028Z,19.30
2023-02-28T18:27:05.968Z,18.80
2023-02-28T18:37:30.141Z,18.30
2023-02-28T18:47:54.390Z,21.10
2023-02-28T18:58:18.724Z,22.10
2023-02-28T19:08:43.417Z,18.50
2023-02-28T19:19:08.242Z,23.70
2023-02-28T19:29:33.213Z,29.50
2023-02-28T19:39:58.227Z,25.60
2023-02-28T19:50:23.169Z,27.60
2023-02-28T20:00:48.288Z,19.20
2023-02-28T20:11:21.587Z,25.80
2023-02-28T20:21:46.473Z,27.10
2023-02-28T20:32:12.830Z,23.40
2023-02-28T20:42:37.453Z,24.50
2023-02-28T20:53:02.254Z,30.20
2023-02-28T21:03:27.100Z,36.30
2023-02-28T21:13:54.361Z,35.40
2023-02-28T21:24:19.915Z,34.80
2023-02-28T21:34:44.055Z,32.60
2023-02-28T21:45:09.655Z,32.10
2023-02-28T21:55:35.649Z,34.80
2023-02-28T22:05:59.794Z,39.40
2023-02-28T22:16:26.627Z,37.10
2023-02-28T22:26:51.683Z,42.40
2023-02-28T22:37:15.902Z,39.60
2023-02-28T22:47:40.111Z,62.60
2023-02-28T22:58:04.534Z,35.20
2023-02-28T23:08:28.975Z,37.20
2023-02-28T23:18:53.538Z,33.60
2023-02-28T23:29:19.061Z,32.30
2023-02-28T23:39:43.232Z,24.90
2023-02-28T23:50:08.959Z,36.30
